LFBYLFBP

Guest
Details From LFBY - Dax Seyresse
To LFBP - Pau Pyrenees
Flight Number -
Tags decoded
Created
Modified
Stats Distance 185 nm / 342 km
Max Altitude 0 ft / 0 m
Waypoints 3
Social Downloads 1
Likes 0
Share

Download

Looking for another format? Having issues loading an existing format? Contact us
Advertisement - Login to hide

Notes

Requested: LFBY LFIY LFBO LFBP

Route

LFBY LFBO LFBP

ID Type Via Altitude (ft/m) Position (lat/lon) Dist (leg/tot) Name
O LFBY APT - 0 / 0 43.69000 / -1.06700 - / 0 nm Dax Seyresse
LFBO APT - 0 / 0 43.62903 / 1.36397 105 / 105 nm Toulouse Blagnac
O LFBP APT - 0 / 0 43.38108 / -0.42075 79 / 184 nm Pau Pyrenees

Altitude Profile

Advertisement - Login to hide

Weather


0- 5 10 15 20 25 30 35+ Temperature / °C

Clouds and Precipitation
Forecast for 2021-07-28 12:00 UTC. Updated 3 hours ago

Ground ~20,000 ft ~40,000 ft Winds

LFBY

Details ICAO LFBY
Name Dax Seyresse
Region France
Timezone Europe/Paris (UTC+2.0)
Stats Elevation 108 ft / 33 m (AMSL)
Location 43.690000° -1.067000°
Runways 1
Magnetic Variation 0.342° E

METAR

LFBY 281200Z 21004KT 190V250 8000 FEW015 SCT026 BKN036 20/18 Q1018

Decode

TAF

Not found

Departure Runways

ID Width Length Bearing (true/mag) Surface Threshold Overrun Markings Lighting
08 98 ft / 30 m 2,462 ft / 751 m 74.00° / 73.66° DIRT 0 ft / 0 m 0 ft / 0 m VISUAL
26 98 ft / 30 m 2,462 ft / 751 m 254.00° / 253.66° DIRT 0 ft / 0 m 0 ft / 0 m VISUAL

LFBP

Details ICAO LFBP (PUF)
Name Pau Pyrenees
Region France
Timezone Europe/Paris (UTC+2.0)
Stats Elevation 616 ft / 188 m (AMSL)
Location 43.381100° -0.420774°
Runways 1
Magnetic Variation 0.534° E

METAR

LFBP 281230Z AUTO VRB03KT 9999 BKN041 OVC048 22/14 Q1018 NOSIG

Decode

TAF

TAF LFBP 281100Z 2812/2912 VRB03KT 9999 BKN020 BECMG 2900/2902 VRB02KT PROB30 2906/2909 SCT008 BKN020

Decode

Destination Runways

ID Width Length Bearing (true/mag) Surface Threshold Overrun Markings Lighting
13 148 ft / 45 m 8,174 ft / 2,492 m 125.89° / 125.36° ASPHALT 0 ft / 0 m 0 ft / 0 m APP CENTERLINE EDGE THRESHOLD
31 148 ft / 45 m 8,174 ft / 2,492 m 305.91° / 305.38° ASPHALT 0 ft / 0 m 0 ft / 0 m PREC-APP CENTERLINE EDGE THRESHOLD CALVERT-ILS TDZ

Approach Navaids

Runway Type Ident Frequency Range Bearing (true/mag) Slope Elevation
31 GS PYR 110.10 MHz 10 nm / 19 km 306.91° / 306.38 ° 3.00° 616 ft / 188 m (AMSL)
31 DME PU 110.10 MHz 18 nm / 33 km - - 608 ft / 185 m (AMSL)
31 LOC-ILS PYR 110.10 MHz 18 nm / 33 km 305.91° / 305.38 ° - 616 ft / 188 m (AMSL)